createdAt,value
2017-12-24T00:04:43.569Z,2.27
2017-12-24T00:09:46.935Z,3.80
2017-12-24T00:14:49.549Z,6.63
2017-12-24T00:19:52.115Z,4.33
2017-12-24T00:24:54.753Z,5.87
2017-12-24T00:29:57.358Z,2.30
2017-12-24T00:34:59.947Z,4.93
2017-12-24T00:40:02.576Z,2.67
2017-12-24T00:45:05.150Z,3.10
2017-12-24T00:50:07.721Z,2.17
2017-12-24T00:55:10.342Z,2.77
2017-12-24T01:00:13.684Z,3.33
2017-12-24T01:05:16.240Z,8.33
2017-12-24T01:10:18.880Z,2.77
2017-12-24T01:15:21.448Z,2.17
2017-12-24T01:20:24.088Z,2.10
2017-12-24T01:25:26.689Z,1.97
2017-12-24T01:30:29.501Z,1.63
2017-12-24T01:35:32.076Z,8.23
2017-12-24T01:40:34.697Z,2.10
2017-12-24T01:45:37.259Z,1.97
2017-12-24T01:50:40.630Z,3.47
2017-12-24T01:55:43.231Z,2.30
2017-12-24T02:00:45.829Z,1.83
2017-12-24T02:05:48.383Z,2.17
2017-12-24T02:10:51.712Z,2.40
2017-12-24T02:15:54.293Z,1.40
2017-12-24T02:20:56.883Z,1.70
2017-12-24T02:25:59.456Z,2.40
2017-12-24T02:31:02.057Z,1.50
2017-12-24T02:36:04.620Z,1.73
2017-12-24T02:41:07.158Z,1.33
2017-12-24T02:46:09.718Z,2.27
2017-12-24T02:51:12.334Z,5.17
2017-12-24T02:56:14.871Z,2.90
2017-12-24T03:01:17.449Z,1.63
2017-12-24T03:06:20.032Z,1.73
2017-12-24T03:11:22.611Z,1.70
2017-12-24T03:16:25.204Z,1.80
2017-12-24T03:21:28.565Z,1.60
2017-12-24T03:26:31.176Z,1.50
2017-12-24T03:31:33.780Z,1.87
2017-12-24T03:36:36.370Z,1.60
2017-12-24T03:41:39.041Z,1.10
2017-12-24T03:46:41.660Z,1.77
2017-12-24T03:51:44.258Z,1.37
2017-12-24T03:56:46.826Z,1.50
2017-12-24T04:01:50.183Z,1.77
2017-12-24T04:06:52.757Z,1.37
2017-12-24T04:11:55.350Z,1.60
2017-12-24T04:17:05.003Z,3.27
2017-12-24T04:22:15.391Z,1.30
2017-12-24T04:27:21.271Z,1.83
2017-12-24T04:32:24.016Z,3.33
2017-12-24T04:37:26.565Z,1.67
2017-12-24T04:42:29.127Z,1.90
2017-12-24T04:47:31.696Z,2.60
2017-12-24T04:52:34.295Z,2.23
2017-12-24T04:57:36.875Z,2.23
2017-12-24T05:02:39.515Z,4.83
2017-12-24T05:07:42.137Z,2.13
2017-12-24T05:12:44.709Z,1.90
2017-12-24T05:17:47.269Z,2.93
2017-12-24T05:22:49.836Z,1.83
2017-12-24T05:27:52.540Z,2.60
2017-12-24T05:32:55.178Z,3.40
2017-12-24T05:37:57.763Z,2.97
2017-12-24T05:43:00.369Z,2.77
2017-12-24T05:48:02.925Z,3.37
2017-12-24T05:53:05.532Z,3.63
2017-12-24T05:58:08.107Z,2.90
2017-12-24T06:03:10.659Z,2.17
2017-12-24T06:08:13.219Z,2.77
2017-12-24T06:13:15.787Z,3.60
2017-12-24T06:18:18.325Z,2.77
2017-12-24T06:23:20.912Z,2.60
2017-12-24T06:28:23.472Z,2.37
2017-12-24T06:33:26.007Z,2.63
2017-12-24T06:38:28.633Z,2.70
2017-12-24T06:43:31.201Z,4.57
2017-12-24T06:48:33.774Z,2.43
2017-12-24T06:53:37.120Z,10.40
2017-12-24T06:58:39.685Z,9.10
2017-12-24T07:03:42.227Z,11.93
2017-12-24T07:08:44.828Z,9.93
2017-12-24T07:13:47.412Z,12.63
2017-12-24T07:18:49.995Z,12.97
2017-12-24T07:23:52.606Z,11.80
2017-12-24T07:28:55.205Z,11.40
2017-12-24T07:39:23.360Z,16.60
2017-12-24T07:44:26.656Z,17.07
2017-12-24T07:49:29.594Z,18.77
2017-12-24T07:54:32.191Z,16.20
2017-12-24T07:59:34.786Z,14.00
2017-12-24T08:04:37.348Z,14.80
2017-12-24T08:09:39.920Z,14.60
2017-12-24T08:14:43.270Z,14.37
2017-12-24T08:19:46.648Z,19.83
2017-12-24T08:24:49.351Z,13.00
2017-12-24T08:29:52.183Z,14.97
2017-12-24T08:34:55.729Z,15.87
2017-12-24T08:39:59.849Z,13.10
2017-12-24T08:45:02.686Z,15.53
2017-12-24T08:50:06.204Z,18.00
2017-12-24T08:55:08.847Z,15.93
2017-12-24T09:00:11.715Z,20.10
2017-12-24T09:05:14.610Z,18.30
2017-12-24T09:10:17.245Z,18.67
2017-12-24T09:15:19.879Z,15.90
2017-12-24T09:20:22.483Z,12.50
2017-12-24T09:25:25.204Z,13.00
2017-12-24T09:30:27.826Z,12.70
2017-12-24T09:35:30.452Z,15.17
2017-12-24T09:40:33.066Z,18.90
2017-12-24T09:45:35.689Z,11.77
2017-12-24T09:50:38.305Z,12.23
2017-12-24T09:55:41.071Z,13.07
2017-12-24T10:00:43.659Z,12.03
2017-12-24T10:05:46.247Z,12.67
2017-12-24T10:10:48.839Z,12.90
2017-12-24T10:15:51.507Z,10.93
2017-12-24T10:20:54.100Z,12.17
2017-12-24T10:25:57.426Z,11.33
2017-12-24T10:31:00.147Z,12.17
2017-12-24T10:36:02.842Z,9.37
2017-12-24T10:41:05.666Z,15.53
2017-12-24T10:46:09.301Z,9.00
2017-12-24T10:51:11.929Z,11.53
2017-12-24T10:56:14.623Z,8.70
2017-12-24T11:01:17.978Z,9.67
2017-12-24T11:06:20.644Z,11.53
2017-12-24T11:11:23.949Z,8.60
2017-12-24T11:44:03.139Z,7.30
2017-12-24T11:49:05.817Z,7.20
2017-12-24T11:54:08.439Z,7.30
2017-12-24T11:59:11.020Z,5.37
2017-12-24T12:04:13.642Z,6.53
2017-12-24T12:09:16.262Z,4.67
2017-12-24T12:14:19.012Z,6.77
2017-12-24T12:19:21.827Z,7.13
2017-12-24T12:24:24.562Z,7.43
2017-12-24T12:29:27.137Z,6.20
2017-12-24T12:34:29.722Z,7.47
2017-12-24T12:39:32.302Z,13.03
2017-12-24T12:44:34.868Z,8.47
2017-12-24T12:49:37.502Z,6.10
2017-12-24T12:54:40.059Z,7.17
2017-12-24T12:59:42.625Z,4.53
2017-12-24T13:04:45.183Z,8.40
2017-12-24T13:09:47.742Z,3.47
2017-12-24T13:14:50.369Z,4.80
2017-12-24T13:19:53.027Z,3.83
2017-12-24T13:24:56.021Z,3.60
2017-12-24T13:29:58.594Z,8.37
2017-12-24T13:35:01.234Z,7.90
2017-12-24T13:40:03.824Z,5.90
2017-12-24T13:45:06.385Z,6.37
2017-12-24T13:50:08.979Z,4.20
2017-12-24T13:55:11.580Z,5.60
2017-12-24T14:00:14.228Z,6.30
2017-12-24T14:05:16.903Z,11.83
2017-12-24T14:10:19.464Z,7.60
2017-12-24T14:15:22.057Z,6.70
2017-12-24T14:20:24.690Z,6.87
2017-12-24T14:25:27.252Z,5.30
2017-12-24T14:30:29.806Z,7.37
2017-12-24T14:35:33.148Z,11.53
2017-12-24T14:40:35.802Z,7.40
2017-12-24T14:45:38.464Z,8.17
2017-12-24T14:50:41.085Z,8.20
2017-12-24T14:55:43.751Z,11.60
2017-12-24T15:00:46.662Z,8.57
2017-12-24T15:05:49.242Z,10.17
2017-12-24T15:10:51.823Z,8.97
2017-12-24T15:15:54.407Z,9.70
2017-12-24T15:20:56.979Z,8.47
2017-12-24T15:25:59.566Z,20.33
2017-12-24T15:31:02.137Z,10.90
2017-12-24T15:36:04.688Z,7.17
2017-12-24T15:41:08.072Z,5.70
2017-12-24T15:46:10.641Z,16.30
2017-12-24T15:51:13.192Z,7.80
2017-12-24T15:56:15.773Z,5.50
2017-12-24T16:01:18.356Z,6.80
2017-12-24T16:06:20.910Z,13.73
2017-12-24T16:11:23.486Z,3.50
2017-12-24T16:16:26.068Z,4.70
2017-12-24T16:21:28.720Z,7.90
2017-12-24T16:26:33.737Z,9.90
2017-12-24T16:31:38.664Z,6.77
2017-12-24T16:36:42.305Z,11.97
2017-12-24T16:41:44.918Z,11.27
2017-12-24T16:46:47.484Z,7.80
2017-12-24T16:51:50.069Z,8.50
2017-12-24T16:56:52.622Z,6.63
2017-12-24T17:01:55.194Z,7.30
2017-12-24T17:06:58.537Z,7.80
2017-12-24T17:12:01.106Z,8.97
2017-12-24T17:17:04.458Z,6.63
2017-12-24T17:22:07.033Z,4.33
2017-12-24T17:27:09.607Z,6.33
2017-12-24T17:32:12.177Z,6.53
2017-12-24T17:37:14.732Z,6.40
2017-12-24T17:42:17.300Z,3.87
2017-12-24T17:47:19.872Z,3.93
2017-12-24T17:52:22.434Z,4.80
2017-12-24T17:57:25.000Z,4.90
2017-12-24T18:02:27.587Z,3.63
2017-12-24T18:07:30.160Z,5.13
2017-12-24T18:12:32.746Z,4.23
2017-12-24T18:17:35.337Z,3.80
2017-12-24T18:22:37.910Z,3.80
2017-12-24T18:27:40.475Z,3.47
2017-12-24T18:32:43.115Z,4.53
2017-12-24T18:37:45.671Z,4.00
2017-12-24T18:42:48.211Z,7.00
2017-12-24T18:47:50.799Z,8.50
2017-12-24T18:52:55.503Z,4.90
2017-12-24T18:57:58.236Z,8.23
2017-12-24T19:03:00.803Z,4.70
2017-12-24T19:08:04.131Z,5.90
2017-12-24T19:13:07.311Z,3.63
2017-12-24T19:18:09.898Z,7.33
2017-12-24T19:23:12.473Z,5.23
2017-12-24T19:28:15.050Z,4.50
2017-12-24T19:33:17.613Z,8.00
2017-12-24T19:38:20.204Z,9.50
2017-12-24T19:43:22.753Z,6.73
2017-12-24T19:48:25.365Z,5.53
2017-12-24T19:53:27.958Z,4.67
2017-12-24T19:58:30.512Z,7.70
2017-12-24T20:03:33.117Z,6.53
2017-12-24T20:08:37.058Z,3.80
2017-12-24T20:13:40.035Z,7.70
2017-12-24T20:18:42.965Z,6.27
2017-12-24T20:23:46.137Z,6.23
2017-12-24T20:28:48.909Z,6.53
2017-12-24T20:33:51.900Z,5.30
2017-12-24T20:38:54.763Z,8.00
2017-12-24T20:43:57.899Z,7.70
2017-12-24T20:49:00.640Z,7.87
2017-12-24T20:54:03.477Z,5.10
2017-12-24T20:59:07.196Z,9.97
2017-12-24T21:04:10.029Z,5.10
2017-12-24T21:09:12.781Z,10.93
2017-12-24T21:14:15.583Z,7.10
2017-12-24T21:19:18.642Z,6.77
2017-12-24T21:24:22.564Z,5.57
2017-12-24T21:29:25.368Z,10.53
2017-12-24T21:34:27.957Z,6.73
2017-12-24T21:39:30.916Z,6.60
2017-12-24T21:44:33.627Z,7.83
2017-12-24T21:49:36.803Z,11.77
2017-12-24T21:54:39.677Z,6.33
2017-12-24T21:59:42.685Z,10.20
2017-12-24T22:04:49.277Z,6.47
2017-12-24T22:09:52.648Z,7.57
2017-12-24T22:14:55.209Z,9.47
2017-12-24T22:19:57.766Z,9.60
2017-12-24T22:25:00.302Z,10.47
2017-12-24T22:30:02.875Z,9.57
2017-12-24T22:35:05.414Z,8.37
2017-12-24T22:40:07.962Z,8.10
2017-12-24T22:45:10.502Z,10.40
2017-12-24T22:50:13.068Z,11.70
2017-12-24T22:55:15.605Z,9.33
2017-12-24T23:00:18.154Z,9.80
2017-12-24T23:05:20.706Z,10.30
2017-12-24T23:10:23.257Z,10.53
2017-12-24T23:15:26.591Z,15.67
2017-12-24T23:20:29.134Z,8.37
2017-12-24T23:25:31.669Z,11.23
2017-12-24T23:30:34.237Z,11.73
2017-12-24T23:35:36.776Z,13.20
2017-12-24T23:40:39.315Z,12.30
2017-12-24T23:45:41.875Z,16.90
2017-12-24T23:50:44.411Z,10.43
2017-12-24T23:55:46.950Z,9.90
